sensor_id;sensor_type;location;lat;lon;timestamp;P1;durP1;ratioP1;P2;durP2;ratioP2
78346;SDS011;67803;41.330;69.282;2023-12-28T00:00:37;18.25;;;7.25;;
78346;SDS011;67803;41.330;69.282;2023-12-28T00:03:08;13.88;;;5.20;;
78346;SDS011;67803;41.330;69.282;2023-12-28T00:05:38;13.73;;;4.57;;
78346;SDS011;67803;41.330;69.282;2023-12-28T00:08:09;14.98;;;5.45;;
78346;SDS011;67803;41.330;69.282;2023-12-28T00:10:39;15.25;;;5.13;;
78346;SDS011;67803;41.330;69.282;2023-12-28T00:13:10;9.75;;;5.20;;
78346;SDS011;67803;41.330;69.282;2023-12-28T00:15:40;13.85;;;5.00;;
78346;SDS011;67803;41.330;69.282;2023-12-28T00:18:11;13.10;;;4.53;;
78346;SDS011;67803;41.330;69.282;2023-12-28T00:20:42;9.15;;;5.15;;
78346;SDS011;67803;41.330;69.282;2023-12-28T00:23:12;14.38;;;5.32;;
78346;SDS011;67803;41.330;69.282;2023-12-28T00:25:43;12.13;;;5.47;;
78346;SDS011;67803;41.330;69.282;2023-12-28T00:28:13;12.02;;;5.43;;
78346;SDS011;67803;41.330;69.282;2023-12-28T00:30:44;14.15;;;5.53;;
78346;SDS011;67803;41.330;69.282;2023-12-28T00:33:14;15.02;;;5.15;;
78346;SDS011;67803;41.330;69.282;2023-12-28T00:35:45;11.48;;;5.40;;
78346;SDS011;67803;41.330;69.282;2023-12-28T00:38:15;19.15;;;6.03;;
78346;SDS011;67803;41.330;69.282;2023-12-28T00:40:46;11.50;;;5.97;;
78346;SDS011;67803;41.330;69.282;2023-12-28T00:43:16;8.80;;;4.30;;
78346;SDS011;67803;41.330;69.282;2023-12-28T00:45:47;10.48;;;5.40;;
78346;SDS011;67803;41.330;69.282;2023-12-28T00:48:17;12.38;;;4.72;;
78346;SDS011;67803;41.330;69.282;2023-12-28T00:50:48;10.70;;;4.63;;
78346;SDS011;67803;41.330;69.282;2023-12-28T00:53:18;11.18;;;4.93;;
78346;SDS011;67803;41.330;69.282;2023-12-28T00:55:50;9.02;;;4.10;;
78346;SDS011;67803;41.330;69.282;2023-12-28T00:58:20;9.57;;;4.15;;
78346;SDS011;67803;41.330;69.282;2023-12-28T01:00:51;10.55;;;4.00;;
78346;SDS011;67803;41.330;69.282;2023-12-28T01:03:25;9.77;;;4.20;;
78346;SDS011;67803;41.330;69.282;2023-12-28T01:05:56;12.13;;;3.58;;
78346;SDS011;67803;41.330;69.282;2023-12-28T01:08:27;14.15;;;3.58;;
78346;SDS011;67803;41.330;69.282;2023-12-28T01:10:57;7.40;;;2.60;;
78346;SDS011;67803;41.330;69.282;2023-12-28T01:13:28;5.85;;;2.03;;
78346;SDS011;67803;41.330;69.282;2023-12-28T01:15:59;5.35;;;2.33;;
78346;SDS011;67803;41.330;69.282;2023-12-28T01:18:29;4.75;;;2.20;;
78346;SDS011;67803;41.330;69.282;2023-12-28T01:21:00;4.82;;;1.95;;
78346;SDS011;67803;41.330;69.282;2023-12-28T01:23:45;5.05;;;1.63;;
78346;SDS011;67803;41.330;69.282;2023-12-28T01:26:16;7.88;;;1.58;;
78346;SDS011;67803;41.330;69.282;2023-12-28T01:28:49;7.03;;;1.80;;
78346;SDS011;67803;41.330;69.282;2023-12-28T01:31:20;5.85;;;1.80;;
78346;SDS011;67803;41.330;69.282;2023-12-28T01:33:51;5.53;;;2.55;;
78346;SDS011;67803;41.330;69.282;2023-12-28T01:36:22;4.18;;;1.77;;
78346;SDS011;67803;41.330;69.282;2023-12-28T01:38:52;4.82;;;1.98;;
78346;SDS011;67803;41.330;69.282;2023-12-28T01:41:23;3.88;;;1.80;;
78346;SDS011;67803;41.330;69.282;2023-12-28T01:43:53;5.15;;;2.03;;
78346;SDS011;67803;41.330;69.282;2023-12-28T01:46:24;4.28;;;2.00;;
78346;SDS011;67803;41.330;69.282;2023-12-28T01:48:55;9.55;;;2.60;;
78346;SDS011;67803;41.330;69.282;2023-12-28T01:51:25;9.90;;;3.42;;
78346;SDS011;67803;41.330;69.282;2023-12-28T01:53:56;9.07;;;3.75;;
78346;SDS011;67803;41.330;69.282;2023-12-28T01:56:27;8.30;;;3.60;;
78346;SDS011;67803;41.330;69.282;2023-12-28T01:58:58;8.85;;;3.58;;
78346;SDS011;67803;41.330;69.282;2023-12-28T02:01:29;10.18;;;4.15;;
78346;SDS011;67803;41.330;69.282;2023-12-28T02:04:00;10.43;;;4.18;;
78346;SDS011;67803;41.330;69.282;2023-12-28T02:06:31;9.75;;;4.30;;
78346;SDS011;67803;41.330;69.282;2023-12-28T02:09:01;10.88;;;4.45;;
78346;SDS011;67803;41.330;69.282;2023-12-28T02:11:32;10.90;;;4.32;;
78346;SDS011;67803;41.330;69.282;2023-12-28T02:14:03;10.63;;;4.18;;
78346;SDS011;67803;41.330;69.282;2023-12-28T02:16:36;10.55;;;4.18;;
78346;SDS011;67803;41.330;69.282;2023-12-28T02:19:20;11.23;;;4.55;;
78346;SDS011;67803;41.330;69.282;2023-12-28T02:21:54;10.82;;;4.65;;
78346;SDS011;67803;41.330;69.282;2023-12-28T02:24:25;9.60;;;4.20;;
78346;SDS011;67803;41.330;69.282;2023-12-28T02:26:56;7.40;;;4.15;;
78346;SDS011;67803;41.330;69.282;2023-12-28T02:29:26;8.95;;;4.40;;
78346;SDS011;67803;41.330;69.282;2023-12-28T02:31:59;13.05;;;4.15;;
78346;SDS011;67803;41.330;69.282;2023-12-28T02:34:34;10.38;;;4.35;;
78346;SDS011;67803;41.330;69.282;2023-12-28T02:37:05;10.15;;;3.97;;
78346;SDS011;67803;41.330;69.282;2023-12-28T02:39:36;11.88;;;4.20;;
78346;SDS011;67803;41.330;69.282;2023-12-28T02:42:07;8.88;;;3.83;;
78346;SDS011;67803;41.330;69.282;2023-12-28T02:44:38;7.38;;;3.42;;
78346;SDS011;67803;41.330;69.282;2023-12-28T02:47:08;8.80;;;3.70;;
78346;SDS011;67803;41.330;69.282;2023-12-28T02:49:39;8.13;;;3.00;;
78346;SDS011;67803;41.330;69.282;2023-12-28T02:52:09;8.88;;;3.50;;
78346;SDS011;67803;41.330;69.282;2023-12-28T02:54:40;6.82;;;2.40;;
78346;SDS011;67803;41.330;69.282;2023-12-28T02:57:10;10.98;;;2.47;;
78346;SDS011;67803;41.330;69.282;2023-12-28T02:59:41;6.95;;;2.30;;
78346;SDS011;67803;41.330;69.282;2023-12-28T03:02:11;6.78;;;1.85;;
78346;SDS011;67803;41.330;69.282;2023-12-28T03:04:42;4.65;;;1.65;;
78346;SDS011;67803;41.330;69.282;2023-12-28T03:07:13;7.07;;;1.80;;
78346;SDS011;67803;41.330;69.282;2023-12-28T03:09:43;4.40;;;1.70;;
78346;SDS011;67803;41.330;69.282;2023-12-28T03:12:14;5.95;;;1.60;;
78346;SDS011;67803;41.330;69.282;2023-12-28T03:14:46;6.32;;;1.70;;
78346;SDS011;67803;41.330;69.282;2023-12-28T03:17:16;7.82;;;1.35;;
78346;SDS011;67803;41.330;69.282;2023-12-28T03:19:47;5.28;;;1.50;;
78346;SDS011;67803;41.330;69.282;2023-12-28T03:22:18;7.20;;;1.58;;
78346;SDS011;67803;41.330;69.282;2023-12-28T03:24:49;6.15;;;1.30;;
78346;SDS011;67803;41.330;69.282;2023-12-28T03:27:19;6.57;;;1.25;;
78346;SDS011;67803;41.330;69.282;2023-12-28T03:29:50;5.15;;;1.73;;
78346;SDS011;67803;41.330;69.282;2023-12-28T03:32:20;4.95;;;1.20;;
78346;SDS011;67803;41.330;69.282;2023-12-28T03:34:51;4.78;;;1.25;;
78346;SDS011;67803;41.330;69.282;2023-12-28T03:37:21;4.03;;;1.45;;
78346;SDS011;67803;41.330;69.282;2023-12-28T03:39:52;4.75;;;1.45;;
78346;SDS011;67803;41.330;69.282;2023-12-28T03:42:22;7.13;;;1.20;;
78346;SDS011;67803;41.330;69.282;2023-12-28T03:44:53;2.88;;;0.98;;
78346;SDS011;67803;41.330;69.282;2023-12-28T03:47:24;4.03;;;1.30;;
78346;SDS011;67803;41.330;69.282;2023-12-28T03:49:54;5.90;;;1.42;;
78346;SDS011;67803;41.330;69.282;2023-12-28T03:52:27;4.38;;;1.40;;
78346;SDS011;67803;41.330;69.282;2023-12-28T03:55:00;4.32;;;1.10;;
78346;SDS011;67803;41.330;69.282;2023-12-28T03:57:30;3.40;;;1.15;;
78346;SDS011;67803;41.330;69.282;2023-12-28T04:00:01;7.18;;;1.38;;
78346;SDS011;67803;41.330;69.282;2023-12-28T04:02:31;3.92;;;1.23;;
78346;SDS011;67803;41.330;69.282;2023-12-28T04:05:02;9.52;;;1.67;;
78346;SDS011;67803;41.330;69.282;2023-12-28T04:07:34;8.38;;;1.52;;
78346;SDS011;67803;41.330;69.282;2023-12-28T04:10:05;9.35;;;1.80;;
78346;SDS011;67803;41.330;69.282;2023-12-28T04:12:35;6.72;;;1.23;;
78346;SDS011;67803;41.330;69.282;2023-12-28T04:15:07;3.35;;;1.63;;
78346;SDS011;67803;41.330;69.282;2023-12-28T04:17:38;4.25;;;1.17;;
78346;SDS011;67803;41.330;69.282;2023-12-28T04:20:08;3.08;;;1.52;;
78346;SDS011;67803;41.330;69.282;2023-12-28T04:22:39;8.60;;;2.22;;
78346;SDS011;67803;41.330;69.282;2023-12-28T04:25:10;6.47;;;1.45;;
78346;SDS011;67803;41.330;69.282;2023-12-28T04:27:41;4.05;;;1.70;;
78346;SDS011;67803;41.330;69.282;2023-12-28T04:30:12;6.90;;;1.17;;
78346;SDS011;67803;41.330;69.282;2023-12-28T04:32:42;7.65;;;1.35;;
78346;SDS011;67803;41.330;69.282;2023-12-28T04:35:13;6.07;;;1.80;;
78346;SDS011;67803;41.330;69.282;2023-12-28T04:37:43;5.70;;;1.48;;
78346;SDS011;67803;41.330;69.282;2023-12-28T04:40:15;6.65;;;1.40;;
78346;SDS011;67803;41.330;69.282;2023-12-28T04:42:47;4.15;;;1.13;;
78346;SDS011;67803;41.330;69.282;2023-12-28T04:45:17;2.92;;;1.17;;
78346;SDS011;67803;41.330;69.282;2023-12-28T04:47:48;2.38;;;1.30;;
78346;SDS011;67803;41.330;69.282;2023-12-28T04:50:18;3.97;;;1.08;;
78346;SDS011;67803;41.330;69.282;2023-12-28T04:52:49;5.90;;;1.40;;
78346;SDS011;67803;41.330;69.282;2023-12-28T04:55:20;8.85;;;1.45;;
78346;SDS011;67803;41.330;69.282;2023-12-28T04:57:51;8.27;;;1.15;;
78346;SDS011;67803;41.330;69.282;2023-12-28T05:00:21;7.10;;;1.30;;
78346;SDS011;67803;41.330;69.282;2023-12-28T05:02:52;7.47;;;1.30;;
78346;SDS011;67803;41.330;69.282;2023-12-28T05:05:22;4.57;;;1.55;;
78346;SDS011;67803;41.330;69.282;2023-12-28T05:07:53;16.08;;;1.65;;
78346;SDS011;67803;41.330;69.282;2023-12-28T05:10:23;4.05;;;1.55;;
78346;SDS011;67803;41.330;69.282;2023-12-28T05:12:54;12.57;;;1.70;;
78346;SDS011;67803;41.330;69.282;2023-12-28T05:15:25;9.75;;;1.80;;
78346;SDS011;67803;41.330;69.282;2023-12-28T05:17:55;10.32;;;1.80;;
78346;SDS011;67803;41.330;69.282;2023-12-28T05:20:26;8.90;;;1.45;;
78346;SDS011;67803;41.330;69.282;2023-12-28T05:22:56;7.60;;;1.70;;
78346;SDS011;67803;41.330;69.282;2023-12-28T05:25:27;4.72;;;1.40;;
78346;SDS011;67803;41.330;69.282;2023-12-28T05:27:57;11.35;;;1.08;;
78346;SDS011;67803;41.330;69.282;2023-12-28T05:30:28;3.50;;;1.30;;
78346;SDS011;67803;41.330;69.282;2023-12-28T05:32:59;4.75;;;1.23;;
78346;SDS011;67803;41.330;69.282;2023-12-28T05:35:30;4.40;;;1.20;;
78346;SDS011;67803;41.330;69.282;2023-12-28T05:38:01;5.97;;;1.30;;
78346;SDS011;67803;41.330;69.282;2023-12-28T05:40:31;5.32;;;1.38;;
78346;SDS011;67803;41.330;69.282;2023-12-28T05:43:02;8.88;;;1.88;;
78346;SDS011;67803;41.330;69.282;2023-12-28T05:45:33;10.93;;;1.40;;
78346;SDS011;67803;41.330;69.282;2023-12-28T05:48:04;5.60;;;1.30;;
78346;SDS011;67803;41.330;69.282;2023-12-28T05:53:04;5.10;;;1.67;;
78346;SDS011;67803;41.330;69.282;2023-12-28T05:55:35;5.72;;;1.75;;
78346;SDS011;67803;41.330;69.282;2023-12-28T05:58:05;7.78;;;1.95;;
78346;SDS011;67803;41.330;69.282;2023-12-28T06:00:36;6.57;;;1.50;;
78346;SDS011;67803;41.330;69.282;2023-12-28T06:03:06;6.18;;;1.67;;
78346;SDS011;67803;41.330;69.282;2023-12-28T06:05:37;3.22;;;1.35;;
78346;SDS011;67803;41.330;69.282;2023-12-28T06:08:08;5.22;;;1.30;;
78346;SDS011;67803;41.330;69.282;2023-12-28T06:10:38;8.18;;;1.65;;
78346;SDS011;67803;41.330;69.282;2023-12-28T06:13:09;6.28;;;1.67;;
78346;SDS011;67803;41.330;69.282;2023-12-28T06:15:39;5.60;;;1.80;;
78346;SDS011;67803;41.330;69.282;2023-12-28T06:18:10;6.53;;;1.42;;
78346;SDS011;67803;41.330;69.282;2023-12-28T06:20:41;6.28;;;1.45;;
78346;SDS011;67803;41.330;69.282;2023-12-28T06:23:11;6.78;;;1.50;;
78346;SDS011;67803;41.330;69.282;2023-12-28T06:25:42;4.15;;;1.60;;
78346;SDS011;67803;41.330;69.282;2023-12-28T06:28:12;5.28;;;1.75;;
78346;SDS011;67803;41.330;69.282;2023-12-28T06:30:43;8.05;;;1.88;;
78346;SDS011;67803;41.330;69.282;2023-12-28T06:33:13;4.80;;;1.65;;
78346;SDS011;67803;41.330;69.282;2023-12-28T06:35:46;4.95;;;1.70;;
78346;SDS011;67803;41.330;69.282;2023-12-28T06:38:16;7.22;;;1.65;;
78346;SDS011;67803;41.330;69.282;2023-12-28T06:40:47;5.95;;;1.70;;
78346;SDS011;67803;41.330;69.282;2023-12-28T06:43:17;15.20;;;1.80;;
78346;SDS011;67803;41.330;69.282;2023-12-28T06:45:48;6.10;;;1.50;;
78346;SDS011;67803;41.330;69.282;2023-12-28T06:48:19;4.35;;;1.38;;
78346;SDS011;67803;41.330;69.282;2023-12-28T06:50:49;6.38;;;1.23;;
78346;SDS011;67803;41.330;69.282;2023-12-28T06:53:20;6.15;;;1.75;;
78346;SDS011;67803;41.330;69.282;2023-12-28T06:55:50;5.47;;;1.90;;
78346;SDS011;67803;41.330;69.282;2023-12-28T06:58:21;5.35;;;1.20;;
78346;SDS011;67803;41.330;69.282;2023-12-28T07:00:51;16.88;;;2.10;;
78346;SDS011;67803;41.330;69.282;2023-12-28T07:03:22;28.60;;;2.58;;
78346;SDS011;67803;41.330;69.282;2023-12-28T07:05:54;8.88;;;1.50;;
78346;SDS011;67803;41.330;69.282;2023-12-28T07:08:25;2.63;;;1.35;;
78346;SDS011;67803;41.330;69.282;2023-12-28T07:10:56;6.97;;;1.92;;
78346;SDS011;67803;41.330;69.282;2023-12-28T07:13:27;3.95;;;1.63;;
78346;SDS011;67803;41.330;69.282;2023-12-28T07:15:58;3.83;;;1.55;;
78346;SDS011;67803;41.330;69.282;2023-12-28T07:18:28;4.78;;;2.05;;
78346;SDS011;67803;41.330;69.282;2023-12-28T07:20:59;3.03;;;1.48;;
78346;SDS011;67803;41.330;69.282;2023-12-28T07:23:30;4.65;;;1.83;;
78346;SDS011;67803;41.330;69.282;2023-12-28T07:26:01;6.32;;;1.60;;
78346;SDS011;67803;41.330;69.282;2023-12-28T07:28:31;5.88;;;1.70;;
78346;SDS011;67803;41.330;69.282;2023-12-28T07:31:02;4.20;;;1.60;;
78346;SDS011;67803;41.330;69.282;2023-12-28T07:33:33;6.88;;;1.90;;
78346;SDS011;67803;41.330;69.282;2023-12-28T07:36:04;5.15;;;1.25;;
78346;SDS011;67803;41.330;69.282;2023-12-28T07:38:36;4.78;;;1.65;;
78346;SDS011;67803;41.330;69.282;2023-12-28T07:41:08;16.65;;;1.95;;
78346;SDS011;67803;41.330;69.282;2023-12-28T07:43:39;10.18;;;1.40;;
78346;SDS011;67803;41.330;69.282;2023-12-28T07:46:09;5.53;;;1.58;;
78346;SDS011;67803;41.330;69.282;2023-12-28T07:48:40;4.80;;;1.20;;
78346;SDS011;67803;41.330;69.282;2023-12-28T07:51:12;5.97;;;1.40;;
78346;SDS011;67803;41.330;69.282;2023-12-28T07:53:43;6.00;;;2.13;;
78346;SDS011;67803;41.330;69.282;2023-12-28T07:56:13;5.43;;;2.00;;
78346;SDS011;67803;41.330;69.282;2023-12-28T07:58:44;5.95;;;1.83;;
78346;SDS011;67803;41.330;69.282;2023-12-28T08:01:14;5.63;;;1.83;;
78346;SDS011;67803;41.330;69.282;2023-12-28T08:03:45;6.57;;;1.63;;
78346;SDS011;67803;41.330;69.282;2023-12-28T08:06:16;6.18;;;1.58;;
78346;SDS011;67803;41.330;69.282;2023-12-28T08:08:47;7.72;;;1.40;;
78346;SDS011;67803;41.330;69.282;2023-12-28T08:11:18;4.13;;;1.42;;
78346;SDS011;67803;41.330;69.282;2023-12-28T08:13:48;5.30;;;1.70;;
78346;SDS011;67803;41.330;69.282;2023-12-28T08:16:19;5.32;;;2.03;;
78346;SDS011;67803;41.330;69.282;2023-12-28T08:18:50;4.85;;;1.40;;
78346;SDS011;67803;41.330;69.282;2023-12-28T08:21:20;3.83;;;1.63;;
78346;SDS011;67803;41.330;69.282;2023-12-28T08:23:51;4.95;;;1.65;;
78346;SDS011;67803;41.330;69.282;2023-12-28T08:26:22;8.00;;;2.65;;
78346;SDS011;67803;41.330;69.282;2023-12-28T08:28:52;10.23;;;3.58;;
78346;SDS011;67803;41.330;69.282;2023-12-28T08:31:23;6.72;;;3.40;;
78346;SDS011;67803;41.330;69.282;2023-12-28T08:33:53;10.30;;;4.70;;
78346;SDS011;67803;41.330;69.282;2023-12-28T08:36:24;11.07;;;5.10;;
78346;SDS011;67803;41.330;69.282;2023-12-28T08:38:54;12.90;;;4.40;;
78346;SDS011;67803;41.330;69.282;2023-12-28T08:41:25;7.55;;;4.25;;
78346;SDS011;67803;41.330;69.282;2023-12-28T08:43:56;4.70;;;2.10;;
78346;SDS011;67803;41.330;69.282;2023-12-28T08:46:27;4.95;;;2.33;;
78346;SDS011;67803;41.330;69.282;2023-12-28T08:48:58;10.18;;;2.92;;
78346;SDS011;67803;41.330;69.282;2023-12-28T08:51:29;7.20;;;2.42;;
78346;SDS011;67803;41.330;69.282;2023-12-28T08:54:00;5.22;;;3.03;;
78346;SDS011;67803;41.330;69.282;2023-12-28T08:56:30;7.53;;;2.90;;
78346;SDS011;67803;41.330;69.282;2023-12-28T08:59:01;6.93;;;2.58;;
78346;SDS011;67803;41.330;69.282;2023-12-28T09:01:31;8.07;;;2.85;;
78346;SDS011;67803;41.330;69.282;2023-12-28T09:04:02;6.68;;;2.20;;
78346;SDS011;67803;41.330;69.282;2023-12-28T09:06:33;7.07;;;2.33;;
78346;SDS011;67803;41.330;69.282;2023-12-28T09:09:03;6.35;;;2.30;;
78346;SDS011;67803;41.330;69.282;2023-12-28T09:11:34;7.38;;;2.30;;
78346;SDS011;67803;41.330;69.282;2023-12-28T09:14:05;5.70;;;1.55;;
78346;SDS011;67803;41.330;69.282;2023-12-28T09:16:35;10.35;;;2.10;;
78346;SDS011;67803;41.330;69.282;2023-12-28T09:19:06;8.02;;;1.98;;
78346;SDS011;67803;41.330;69.282;2023-12-28T09:21:36;5.25;;;1.60;;
78346;SDS011;67803;41.330;69.282;2023-12-28T09:24:08;7.32;;;2.35;;
78346;SDS011;67803;41.330;69.282;2023-12-28T09:26:39;4.93;;;2.33;;
78346;SDS011;67803;41.330;69.282;2023-12-28T09:29:09;11.38;;;2.47;;
78346;SDS011;67803;41.330;69.282;2023-12-28T09:31:40;9.20;;;2.92;;
78346;SDS011;67803;41.330;69.282;2023-12-28T09:34:10;6.30;;;1.70;;
78346;SDS011;67803;41.330;69.282;2023-12-28T09:36:41;4.55;;;1.42;;
78346;SDS011;67803;41.330;69.282;2023-12-28T09:39:12;5.10;;;1.10;;
78346;SDS011;67803;41.330;69.282;2023-12-28T09:41:45;3.83;;;1.45;;
78346;SDS011;67803;41.330;69.282;2023-12-28T09:44:18;7.47;;;1.75;;
78346;SDS011;67803;41.330;69.282;2023-12-28T09:46:49;8.13;;;1.60;;
78346;SDS011;67803;41.330;69.282;2023-12-28T09:49:20;6.55;;;1.33;;
78346;SDS011;67803;41.330;69.282;2023-12-28T09:51:51;5.93;;;1.42;;
78346;SDS011;67803;41.330;69.282;2023-12-28T09:54:22;7.25;;;1.50;;
78346;SDS011;67803;41.330;69.282;2023-12-28T09:56:52;6.65;;;1.30;;
78346;SDS011;67803;41.330;69.282;2023-12-28T09:59:24;3.60;;;1.30;;
78346;SDS011;67803;41.330;69.282;2023-12-28T10:01:55;4.80;;;1.70;;
78346;SDS011;67803;41.330;69.282;2023-12-28T10:04:26;8.18;;;2.22;;
78346;SDS011;67803;41.330;69.282;2023-12-28T10:06:59;9.85;;;1.88;;
78346;SDS011;67803;41.330;69.282;2023-12-28T10:09:29;6.43;;;1.73;;
78346;SDS011;67803;41.330;69.282;2023-12-28T10:12:00;5.22;;;1.70;;
78346;SDS011;67803;41.330;69.282;2023-12-28T10:14:31;5.13;;;1.30;;
78346;SDS011;67803;41.330;69.282;2023-12-28T10:17:01;41.17;;;3.80;;
78346;SDS011;67803;41.330;69.282;2023-12-28T10:19:32;11.98;;;1.45;;
78346;SDS011;67803;41.330;69.282;2023-12-28T10:22:03;8.85;;;1.50;;
78346;SDS011;67803;41.330;69.282;2023-12-28T10:24:35;8.30;;;1.67;;
78346;SDS011;67803;41.330;69.282;2023-12-28T10:27:11;6.60;;;2.05;;
78346;SDS011;67803;41.330;69.282;2023-12-28T10:29:42;8.90;;;1.85;;
78346;SDS011;67803;41.330;69.282;2023-12-28T10:32:13;4.32;;;1.90;;
78346;SDS011;67803;41.330;69.282;2023-12-28T10:34:43;6.32;;;1.83;;
78346;SDS011;67803;41.330;69.282;2023-12-28T10:37:16;6.15;;;2.05;;
78346;SDS011;67803;41.330;69.282;2023-12-28T10:39:49;6.53;;;2.53;;
78346;SDS011;67803;41.330;69.282;2023-12-28T10:42:32;10.32;;;2.60;;
78346;SDS011;67803;41.330;69.282;2023-12-28T10:45:04;7.10;;;2.30;;
78346;SDS011;67803;41.330;69.282;2023-12-28T10:47:40;7.03;;;1.83;;
78346;SDS011;67803;41.330;69.282;2023-12-28T10:50:13;17.13;;;2.17;;
78346;SDS011;67803;41.330;69.282;2023-12-28T10:52:43;6.45;;;1.40;;
78346;SDS011;67803;41.330;69.282;2023-12-28T11:00:22;12.27;;;1.92;;
78346;SDS011;67803;41.330;69.282;2023-12-28T11:02:53;7.30;;;1.80;;
78346;SDS011;67803;41.330;69.282;2023-12-28T11:05:26;8.50;;;1.35;;
78346;SDS011;67803;41.330;69.282;2023-12-28T11:07:58;15.63;;;2.05;;
78346;SDS011;67803;41.330;69.282;2023-12-28T11:10:30;8.05;;;1.80;;
78346;SDS011;67803;41.330;69.282;2023-12-28T11:13:03;5.50;;;1.70;;
78346;SDS011;67803;41.330;69.282;2023-12-28T11:15:34;3.72;;;1.50;;
78346;SDS011;67803;41.330;69.282;2023-12-28T11:18:06;3.72;;;1.65;;
78346;SDS011;67803;41.330;69.282;2023-12-28T11:20:37;5.20;;;1.85;;
78346;SDS011;67803;41.330;69.282;2023-12-28T11:23:08;6.07;;;2.17;;
78346;SDS011;67803;41.330;69.282;2023-12-28T11:25:39;6.28;;;2.22;;
78346;SDS011;67803;41.330;69.282;2023-12-28T11:28:10;7.70;;;2.13;;
78346;SDS011;67803;41.330;69.282;2023-12-28T11:30:41;7.95;;;2.13;;
78346;SDS011;67803;41.330;69.282;2023-12-28T11:33:12;9.32;;;1.90;;
78346;SDS011;67803;41.330;69.282;2023-12-28T11:35:42;5.57;;;1.85;;
78346;SDS011;67803;41.330;69.282;2023-12-28T11:38:13;8.05;;;1.95;;
78346;SDS011;67803;41.330;69.282;2023-12-28T11:40:47;8.38;;;2.30;;
78346;SDS011;67803;41.330;69.282;2023-12-28T11:43:18;4.00;;;2.22;;
78346;SDS011;67803;41.330;69.282;2023-12-28T11:45:50;7.28;;;2.80;;
78346;SDS011;67803;41.330;69.282;2023-12-28T11:48:24;9.45;;;3.22;;
78346;SDS011;67803;41.330;69.282;2023-12-28T11:50:58;11.43;;;4.45;;
78346;SDS011;67803;41.330;69.282;2023-12-28T11:53:29;7.32;;;3.25;;
78346;SDS011;67803;41.330;69.282;2023-12-28T11:56:00;6.25;;;2.88;;
78346;SDS011;67803;41.330;69.282;2023-12-28T11:58:35;8.85;;;3.08;;
78346;SDS011;67803;41.330;69.282;2023-12-28T12:01:06;6.35;;;3.13;;
78346;SDS011;67803;41.330;69.282;2023-12-28T12:03:36;10.00;;;2.90;;
78346;SDS011;67803;41.330;69.282;2023-12-28T12:06:07;8.77;;;3.47;;
78346;SDS011;67803;41.330;69.282;2023-12-28T12:08:38;10.07;;;3.60;;
78346;SDS011;67803;41.330;69.282;2023-12-28T12:11:09;9.48;;;3.08;;
78346;SDS011;67803;41.330;69.282;2023-12-28T12:13:39;5.38;;;2.20;;
78346;SDS011;67803;41.330;69.282;2023-12-28T12:16:10;6.68;;;2.60;;
78346;SDS011;67803;41.330;69.282;2023-12-28T12:18:43;6.05;;;2.47;;
78346;SDS011;67803;41.330;69.282;2023-12-28T12:21:14;18.33;;;3.42;;
78346;SDS011;67803;41.330;69.282;2023-12-28T12:23:45;12.65;;;2.90;;
78346;SDS011;67803;41.330;69.282;2023-12-28T12:26:17;6.38;;;2.60;;
78346;SDS011;67803;41.330;69.282;2023-12-28T12:28:48;6.22;;;2.22;;
78346;SDS011;67803;41.330;69.282;2023-12-28T12:31:19;9.13;;;2.20;;
78346;SDS011;67803;41.330;69.282;2023-12-28T12:33:50;9.00;;;2.53;;
78346;SDS011;67803;41.330;69.282;2023-12-28T12:36:21;8.88;;;2.63;;
78346;SDS011;67803;41.330;69.282;2023-12-28T12:38:52;7.22;;;2.40;;
78346;SDS011;67803;41.330;69.282;2023-12-28T12:41:22;7.22;;;2.10;;
78346;SDS011;67803;41.330;69.282;2023-12-28T12:43:53;10.93;;;2.67;;
78346;SDS011;67803;41.330;69.282;2023-12-28T12:46:27;11.85;;;3.00;;
78346;SDS011;67803;41.330;69.282;2023-12-28T12:48:58;8.43;;;2.40;;
78346;SDS011;67803;41.330;69.282;2023-12-28T12:51:29;9.43;;;2.47;;
78346;SDS011;67803;41.330;69.282;2023-12-28T12:54:00;10.68;;;2.63;;
78346;SDS011;67803;41.330;69.282;2023-12-28T12:56:31;8.93;;;2.42;;
78346;SDS011;67803;41.330;69.282;2023-12-28T12:59:02;9.35;;;2.20;;
78346;SDS011;67803;41.330;69.282;2023-12-28T13:01:32;9.10;;;1.90;;
78346;SDS011;67803;41.330;69.282;2023-12-28T13:04:03;6.07;;;1.77;;
78346;SDS011;67803;41.330;69.282;2023-12-28T13:06:33;7.28;;;2.30;;
78346;SDS011;67803;41.330;69.282;2023-12-28T13:09:04;5.75;;;2.65;;
78346;SDS011;67803;41.330;69.282;2023-12-28T13:11:37;8.57;;;2.40;;
78346;SDS011;67803;41.330;69.282;2023-12-28T13:14:08;9.05;;;2.97;;
78346;SDS011;67803;41.330;69.282;2023-12-28T13:16:38;7.35;;;2.75;;
78346;SDS011;67803;41.330;69.282;2023-12-28T13:19:09;6.95;;;2.67;;
78346;SDS011;67803;41.330;69.282;2023-12-28T13:21:39;13.98;;;2.78;;
78346;SDS011;67803;41.330;69.282;2023-12-28T13:24:10;11.68;;;2.75;;
78346;SDS011;67803;41.330;69.282;2023-12-28T13:26:41;14.20;;;3.55;;
78346;SDS011;67803;41.330;69.282;2023-12-28T13:29:11;15.65;;;3.67;;
78346;SDS011;67803;41.330;69.282;2023-12-28T13:31:42;13.07;;;3.88;;
78346;SDS011;67803;41.330;69.282;2023-12-28T13:34:15;9.48;;;3.15;;
78346;SDS011;67803;41.330;69.282;2023-12-28T13:36:45;12.45;;;3.75;;
78346;SDS011;67803;41.330;69.282;2023-12-28T13:42:06;12.57;;;3.60;;
78346;SDS011;67803;41.330;69.282;2023-12-28T13:44:37;10.68;;;2.85;;
78346;SDS011;67803;41.330;69.282;2023-12-28T13:47:08;8.60;;;2.30;;
78346;SDS011;67803;41.330;69.282;2023-12-28T13:49:39;9.52;;;3.30;;
78346;SDS011;67803;41.330;69.282;2023-12-28T13:52:10;11.25;;;2.65;;
78346;SDS011;67803;41.330;69.282;2023-12-28T13:54:41;7.30;;;2.38;;
78346;SDS011;67803;41.330;69.282;2023-12-28T13:57:12;5.93;;;2.60;;
78346;SDS011;67803;41.330;69.282;2023-12-28T13:59:42;9.85;;;3.25;;
78346;SDS011;67803;41.330;69.282;2023-12-28T14:02:18;9.00;;;2.88;;
78346;SDS011;67803;41.330;69.282;2023-12-28T14:04:52;12.27;;;3.67;;
78346;SDS011;67803;41.330;69.282;2023-12-28T14:07:25;10.27;;;3.72;;
78346;SDS011;67803;41.330;69.282;2023-12-28T14:09:56;6.63;;;3.13;;
78346;SDS011;67803;41.330;69.282;2023-12-28T14:12:27;9.60;;;4.35;;
78346;SDS011;67803;41.330;69.282;2023-12-28T14:14:57;8.65;;;3.80;;
78346;SDS011;67803;41.330;69.282;2023-12-28T14:17:28;10.82;;;4.68;;
78346;SDS011;67803;41.330;69.282;2023-12-28T14:20:00;12.57;;;4.95;;
78346;SDS011;67803;41.330;69.282;2023-12-28T14:22:31;13.07;;;4.65;;
78346;SDS011;67803;41.330;69.282;2023-12-28T14:25:02;14.75;;;5.97;;
78346;SDS011;67803;41.330;69.282;2023-12-28T14:27:32;12.30;;;5.30;;
78346;SDS011;67803;41.330;69.282;2023-12-28T14:30:04;17.00;;;6.72;;
78346;SDS011;67803;41.330;69.282;2023-12-28T14:32:36;15.63;;;7.88;;
78346;SDS011;67803;41.330;69.282;2023-12-28T14:35:07;19.35;;;7.70;;
78346;SDS011;67803;41.330;69.282;2023-12-28T14:37:38;16.50;;;8.35;;
78346;SDS011;67803;41.330;69.282;2023-12-28T14:40:09;18.13;;;8.40;;
78346;SDS011;67803;41.330;69.282;2023-12-28T14:42:41;23.85;;;10.50;;
78346;SDS011;67803;41.330;69.282;2023-12-28T14:45:12;25.83;;;11.02;;
78346;SDS011;67803;41.330;69.282;2023-12-28T14:47:42;28.40;;;12.93;;
78346;SDS011;67803;41.330;69.282;2023-12-28T14:50:13;27.52;;;12.43;;
78346;SDS011;67803;41.330;69.282;2023-12-28T14:52:43;28.52;;;11.93;;
78346;SDS011;67803;41.330;69.282;2023-12-28T14:55:14;28.85;;;12.18;;
78346;SDS011;67803;41.330;69.282;2023-12-28T14:57:45;31.05;;;13.18;;
78346;SDS011;67803;41.330;69.282;2023-12-28T15:00:15;28.98;;;12.30;;
78346;SDS011;67803;41.330;69.282;2023-12-28T15:02:46;26.08;;;10.63;;